sensor_id;sensor_type;location;lat;lon;timestamp;temperature;humidity
3850;DHT22;1940;51.052;13.678;2022-07-29T00:01:15;17.70;62.90
3850;DHT22;1940;51.052;13.678;2022-07-29T00:03:41;17.70;62.80
3850;DHT22;1940;51.052;13.678;2022-07-29T00:06:07;17.80;62.90
3850;DHT22;1940;51.052;13.678;2022-07-29T00:08:33;17.80;63.00
3850;DHT22;1940;51.052;13.678;2022-07-29T00:10:58;17.60;63.60
3850;DHT22;1940;51.052;13.678;2022-07-29T00:13:24;17.50;63.90
3850;DHT22;1940;51.052;13.678;2022-07-29T00:15:49;17.40;64.40
3850;DHT22;1940;51.052;13.678;2022-07-29T00:18:15;17.30;64.70
3850;DHT22;1940;51.052;13.678;2022-07-29T00:20:40;17.20;65.00
3850;DHT22;1940;51.052;13.678;2022-07-29T00:23:06;17.20;65.10
3850;DHT22;1940;51.052;13.678;2022-07-29T00:25:32;17.10;65.10
3850;DHT22;1940;51.052;13.678;2022-07-29T00:27:57;17.10;65.00
3850;DHT22;1940;51.052;13.678;2022-07-29T00:30:23;17.20;64.80
3850;DHT22;1940;51.052;13.678;2022-07-29T00:32:48;17.20;64.60
3850;DHT22;1940;51.052;13.678;2022-07-29T00:35:14;17.30;64.70
3850;DHT22;1940;51.052;13.678;2022-07-29T00:37:58;17.20;64.50
3850;DHT22;1940;51.052;13.678;2022-07-29T00:40:24;17.20;64.80
3850;DHT22;1940;51.052;13.678;2022-07-29T00:42:51;17.20;65.10
3850;DHT22;1940;51.052;13.678;2022-07-29T00:45:18;17.20;65.20
3850;DHT22;1940;51.052;13.678;2022-07-29T00:47:44;17.10;65.10
3850;DHT22;1940;51.052;13.678;2022-07-29T00:50:12;17.10;65.30
3850;DHT22;1940;51.052;13.678;2022-07-29T00:52:39;17.00;65.50
3850;DHT22;1940;51.052;13.678;2022-07-29T00:55:07;17.00;65.80
3850;DHT22;1940;51.052;13.678;2022-07-29T00:57:33;17.00;65.70
3850;DHT22;1940;51.052;13.678;2022-07-29T00:59:59;17.00;65.70
3850;DHT22;1940;51.052;13.678;2022-07-29T01:02:24;17.00;66.00
3850;DHT22;1940;51.052;13.678;2022-07-29T01:04:50;17.00;65.90
3850;DHT22;1940;51.052;13.678;2022-07-29T01:07:17;16.90;66.00
3850;DHT22;1940;51.052;13.678;2022-07-29T01:13:05;16.90;66.20
3850;DHT22;1940;51.052;13.678;2022-07-29T01:15:33;16.80;66.60
3850;DHT22;1940;51.052;13.678;2022-07-29T01:18:16;16.80;66.60
3850;DHT22;1940;51.052;13.678;2022-07-29T01:29:16;16.80;65.60
3850;DHT22;1940;51.052;13.678;2022-07-29T01:34:29;16.70;65.90
3850;DHT22;1940;51.052;13.678;2022-07-29T01:39:48;16.50;67.00
3850;DHT22;1940;51.052;13.678;2022-07-29T01:42:26;16.40;67.40
3850;DHT22;1940;51.052;13.678;2022-07-29T01:45:02;16.40;67.50
3850;DHT22;1940;51.052;13.678;2022-07-29T01:47:35;16.40;67.50
3850;DHT22;1940;51.052;13.678;2022-07-29T01:50:07;16.30;67.40
3850;DHT22;1940;51.052;13.678;2022-07-29T01:52:39;16.20;67.80
3850;DHT22;1940;51.052;13.678;2022-07-29T01:55:12;16.20;67.80
3850;DHT22;1940;51.052;13.678;2022-07-29T01:57:40;16.30;67.70
3850;DHT22;1940;51.052;13.678;2022-07-29T02:00:07;16.30;67.80
3850;DHT22;1940;51.052;13.678;2022-07-29T02:02:35;16.30;67.90
3850;DHT22;1940;51.052;13.678;2022-07-29T02:05:05;16.40;68.00
3850;DHT22;1940;51.052;13.678;2022-07-29T02:07:33;16.40;67.80
3850;DHT22;1940;51.052;13.678;2022-07-29T02:10:01;16.40;67.60
3850;DHT22;1940;51.052;13.678;2022-07-29T02:12:28;16.50;67.60
3850;DHT22;1940;51.052;13.678;2022-07-29T02:14:54;16.60;67.70
3850;DHT22;1940;51.052;13.678;2022-07-29T02:17:26;16.50;67.80
3850;DHT22;1940;51.052;13.678;2022-07-29T02:19:56;16.40;67.80
3850;DHT22;1940;51.052;13.678;2022-07-29T02:22:24;16.30;67.90
3850;DHT22;1940;51.052;13.678;2022-07-29T02:24:51;16.30;68.20
3850;DHT22;1940;51.052;13.678;2022-07-29T02:27:19;16.30;68.20
3850;DHT22;1940;51.052;13.678;2022-07-29T02:29:46;16.40;68.00
3850;DHT22;1940;51.052;13.678;2022-07-29T02:32:13;16.30;67.80
3850;DHT22;1940;51.052;13.678;2022-07-29T02:34:41;16.20;67.90
3850;DHT22;1940;51.052;13.678;2022-07-29T02:37:12;16.20;68.00
3850;DHT22;1940;51.052;13.678;2022-07-29T02:39:41;16.10;68.30
3850;DHT22;1940;51.052;13.678;2022-07-29T02:42:09;16.30;68.00
3850;DHT22;1940;51.052;13.678;2022-07-29T02:44:36;16.20;67.90
3850;DHT22;1940;51.052;13.678;2022-07-29T02:47:10;16.20;68.30
3850;DHT22;1940;51.052;13.678;2022-07-29T02:57:36;16.00;68.90
3850;DHT22;1940;51.052;13.678;2022-07-29T03:00:07;16.20;68.50
3850;DHT22;1940;51.052;13.678;2022-07-29T03:02:36;16.20;68.50
3850;DHT22;1940;51.052;13.678;2022-07-29T03:05:03;16.20;67.80
3850;DHT22;1940;51.052;13.678;2022-07-29T03:07:29;16.30;68.40
3850;DHT22;1940;51.052;13.678;2022-07-29T03:09:56;16.30;68.20
3850;DHT22;1940;51.052;13.678;2022-07-29T03:12:23;16.30;67.80
3850;DHT22;1940;51.052;13.678;2022-07-29T03:14:50;16.40;67.50
3850;DHT22;1940;51.052;13.678;2022-07-29T03:17:16;16.40;68.20
3850;DHT22;1940;51.052;13.678;2022-07-29T03:19:42;16.40;68.40
3850;DHT22;1940;51.052;13.678;2022-07-29T03:22:08;16.50;68.30
3850;DHT22;1940;51.052;13.678;2022-07-29T03:24:35;16.50;68.60
3850;DHT22;1940;51.052;13.678;2022-07-29T03:27:03;16.50;67.70
3850;DHT22;1940;51.052;13.678;2022-07-29T03:29:29;16.60;67.00
3850;DHT22;1940;51.052;13.678;2022-07-29T03:31:55;16.60;66.90
3850;DHT22;1940;51.052;13.678;2022-07-29T03:34:21;16.60;66.80
3850;DHT22;1940;51.052;13.678;2022-07-29T03:36:47;16.60;66.60
3850;DHT22;1940;51.052;13.678;2022-07-29T03:39:17;16.50;66.90
3850;DHT22;1940;51.052;13.678;2022-07-29T03:41:44;16.60;66.80
3850;DHT22;1940;51.052;13.678;2022-07-29T03:44:11;16.50;67.50
3850;DHT22;1940;51.052;13.678;2022-07-29T03:46:39;16.50;68.00
3850;DHT22;1940;51.052;13.678;2022-07-29T03:49:06;16.60;67.80
3850;DHT22;1940;51.052;13.678;2022-07-29T03:51:33;16.60;67.70
3850;DHT22;1940;51.052;13.678;2022-07-29T03:54:04;16.50;67.90
3850;DHT22;1940;51.052;13.678;2022-07-29T03:56:32;16.40;68.70
3850;DHT22;1940;51.052;13.678;2022-07-29T03:59:01;16.30;68.40
3850;DHT22;1940;51.052;13.678;2022-07-29T04:01:28;16.40;68.40
3850;DHT22;1940;51.052;13.678;2022-07-29T04:03:55;16.40;68.30
3850;DHT22;1940;51.052;13.678;2022-07-29T04:06:21;16.30;68.70
3850;DHT22;1940;51.052;13.678;2022-07-29T04:08:46;16.20;69.30
3850;DHT22;1940;51.052;13.678;2022-07-29T04:11:12;16.20;69.20
3850;DHT22;1940;51.052;13.678;2022-07-29T04:13:38;16.30;68.90
3850;DHT22;1940;51.052;13.678;2022-07-29T04:16:04;16.40;68.70
3850;DHT22;1940;51.052;13.678;2022-07-29T04:18:29;16.40;68.80
3850;DHT22;1940;51.052;13.678;2022-07-29T04:20:55;16.30;69.10
3850;DHT22;1940;51.052;13.678;2022-07-29T04:23:21;16.30;69.20
3850;DHT22;1940;51.052;13.678;2022-07-29T04:25:46;16.40;69.10
3850;DHT22;1940;51.052;13.678;2022-07-29T04:31:34;16.70;68.50
3850;DHT22;1940;51.052;13.678;2022-07-29T04:34:00;16.80;68.50
3850;DHT22;1940;51.052;13.678;2022-07-29T04:36:25;16.80;68.70
3850;DHT22;1940;51.052;13.678;2022-07-29T04:38:51;17.00;68.30
3850;DHT22;1940;51.052;13.678;2022-07-29T04:41:17;17.10;67.60
3850;DHT22;1940;51.052;13.678;2022-07-29T04:43:42;17.10;67.80
3850;DHT22;1940;51.052;13.678;2022-07-29T04:46:08;17.30;67.60
3850;DHT22;1940;51.052;13.678;2022-07-29T04:48:34;17.50;66.80
3850;DHT22;1940;51.052;13.678;2022-07-29T04:50:59;17.60;66.20
3850;DHT22;1940;51.052;13.678;2022-07-29T04:53:25;17.80;65.40
3850;DHT22;1940;51.052;13.678;2022-07-29T04:55:51;17.80;66.20
3850;DHT22;1940;51.052;13.678;2022-07-29T04:58:17;17.90;65.30
3850;DHT22;1940;51.052;13.678;2022-07-29T05:00:43;18.00;65.40
3850;DHT22;1940;51.052;13.678;2022-07-29T05:03:08;17.90;66.00
3850;DHT22;1940;51.052;13.678;2022-07-29T05:05:34;18.10;65.70
3850;DHT22;1940;51.052;13.678;2022-07-29T05:08:00;18.40;65.20
3850;DHT22;1940;51.052;13.678;2022-07-29T05:10:25;18.70;64.10
3850;DHT22;1940;51.052;13.678;2022-07-29T05:12:51;19.00;63.30
3850;DHT22;1940;51.052;13.678;2022-07-29T05:15:17;19.50;61.70
3850;DHT22;1940;51.052;13.678;2022-07-29T05:17:44;19.90;60.50
3850;DHT22;1940;51.052;13.678;2022-07-29T05:20:09;20.00;60.20
3850;DHT22;1940;51.052;13.678;2022-07-29T05:22:35;20.20;59.80
3850;DHT22;1940;51.052;13.678;2022-07-29T05:28:23;20.50;59.30
3850;DHT22;1940;51.052;13.678;2022-07-29T05:30:48;20.70;59.20
3850;DHT22;1940;51.052;13.678;2022-07-29T05:33:14;21.10;58.30
3850;DHT22;1940;51.052;13.678;2022-07-29T05:35:40;21.80;57.10
3850;DHT22;1940;51.052;13.678;2022-07-29T05:38:05;22.50;55.80
3850;DHT22;1940;51.052;13.678;2022-07-29T05:40:31;23.50;53.80
3850;DHT22;1940;51.052;13.678;2022-07-29T05:42:57;24.40;52.40
3850;DHT22;1940;51.052;13.678;2022-07-29T05:45:23;24.50;52.00
3850;DHT22;1940;51.052;13.678;2022-07-29T05:47:49;24.60;51.80
3850;DHT22;1940;51.052;13.678;2022-07-29T05:50:15;24.20;52.40
3850;DHT22;1940;51.052;13.678;2022-07-29T05:52:40;23.80;53.00
3850;DHT22;1940;51.052;13.678;2022-07-29T05:55:06;23.30;53.70
3850;DHT22;1940;51.052;13.678;2022-07-29T05:57:32;23.00;54.70
3850;DHT22;1940;51.052;13.678;2022-07-29T05:59:58;22.90;54.90
3850;DHT22;1940;51.052;13.678;2022-07-29T06:02:23;22.70;55.20
3850;DHT22;1940;51.052;13.678;2022-07-29T06:04:49;22.60;55.60
3850;DHT22;1940;51.052;13.678;2022-07-29T06:07:15;22.50;55.60
3850;DHT22;1940;51.052;13.678;2022-07-29T06:09:42;22.50;55.80
3850;DHT22;1940;51.052;13.678;2022-07-29T06:12:07;22.50;55.80
3850;DHT22;1940;51.052;13.678;2022-07-29T06:14:33;22.50;55.90
3850;DHT22;1940;51.052;13.678;2022-07-29T06:16:59;22.30;56.50
3850;DHT22;1940;51.052;13.678;2022-07-29T06:19:24;22.20;56.80
3850;DHT22;1940;51.052;13.678;2022-07-29T06:21:51;22.20;56.70
3850;DHT22;1940;51.052;13.678;2022-07-29T06:24:16;22.00;57.20
3850;DHT22;1940;51.052;13.678;2022-07-29T06:26:42;22.00;57.40
3850;DHT22;1940;51.052;13.678;2022-07-29T06:29:09;22.00;57.20
3850;DHT22;1940;51.052;13.678;2022-07-29T06:31:39;22.10;56.70
3850;DHT22;1940;51.052;13.678;2022-07-29T06:34:05;22.00;57.10
3850;DHT22;1940;51.052;13.678;2022-07-29T06:36:34;22.00;57.20
3850;DHT22;1940;51.052;13.678;2022-07-29T06:39:00;21.90;57.90
3850;DHT22;1940;51.052;13.678;2022-07-29T06:41:26;21.90;58.00
3850;DHT22;1940;51.052;13.678;2022-07-29T06:43:52;21.70;58.40
3850;DHT22;1940;51.052;13.678;2022-07-29T06:46:19;21.70;58.80
3850;DHT22;1940;51.052;13.678;2022-07-29T06:48:45;21.50;59.10
3850;DHT22;1940;51.052;13.678;2022-07-29T06:51:11;21.70;58.60
3850;DHT22;1940;51.052;13.678;2022-07-29T06:53:38;21.90;58.50
3850;DHT22;1940;51.052;13.678;2022-07-29T06:56:05;21.90;58.70
3850;DHT22;1940;51.052;13.678;2022-07-29T06:58:31;22.00;58.50
3850;DHT22;1940;51.052;13.678;2022-07-29T07:00:58;22.10;58.10
3850;DHT22;1940;51.052;13.678;2022-07-29T07:03:26;22.10;57.90
3850;DHT22;1940;51.052;13.678;2022-07-29T07:05:53;22.20;58.00
3850;DHT22;1940;51.052;13.678;2022-07-29T07:11:41;22.20;58.00
3850;DHT22;1940;51.052;13.678;2022-07-29T07:14:06;22.10;58.10
3850;DHT22;1940;51.052;13.678;2022-07-29T07:16:32;22.20;57.90
3850;DHT22;1940;51.052;13.678;2022-07-29T07:18:58;22.40;57.30
3850;DHT22;1940;51.052;13.678;2022-07-29T07:21:23;22.60;57.10
3850;DHT22;1940;51.052;13.678;2022-07-29T07:23:49;22.90;56.70
3850;DHT22;1940;51.052;13.678;2022-07-29T07:26:15;22.90;56.70
3850;DHT22;1940;51.052;13.678;2022-07-29T07:28:40;22.80;56.70
3850;DHT22;1940;51.052;13.678;2022-07-29T07:31:06;22.70;57.30
3850;DHT22;1940;51.052;13.678;2022-07-29T07:33:32;22.60;57.60
3850;DHT22;1940;51.052;13.678;2022-07-29T07:35:57;22.60;57.50
3850;DHT22;1940;51.052;13.678;2022-07-29T07:38:23;22.60;57.20
3850;DHT22;1940;51.052;13.678;2022-07-29T07:40:48;22.70;57.00
3850;DHT22;1940;51.052;13.678;2022-07-29T07:43:14;23.10;56.70
3850;DHT22;1940;51.052;13.678;2022-07-29T07:45:40;23.00;56.70
3850;DHT22;1940;51.052;13.678;2022-07-29T07:48:06;23.00;56.30
3850;DHT22;1940;51.052;13.678;2022-07-29T07:50:32;23.30;55.60
3850;DHT22;1940;51.052;13.678;2022-07-29T07:52:57;23.50;55.20
3850;DHT22;1940;51.052;13.678;2022-07-29T07:55:24;23.70;55.10
3850;DHT22;1940;51.052;13.678;2022-07-29T07:57:50;24.10;54.90
3850;DHT22;1940;51.052;13.678;2022-07-29T08:00:16;24.50;54.20
3850;DHT22;1940;51.052;13.678;2022-07-29T08:02:42;24.60;54.30
3850;DHT22;1940;51.052;13.678;2022-07-29T08:05:08;24.60;54.10
3850;DHT22;1940;51.052;13.678;2022-07-29T08:07:34;24.40;54.30
3850;DHT22;1940;51.052;13.678;2022-07-29T08:10:01;24.60;53.90
3850;DHT22;1940;51.052;13.678;2022-07-29T08:12:26;25.10;53.40
3850;DHT22;1940;51.052;13.678;2022-07-29T08:14:52;25.50;52.40
3850;DHT22;1940;51.052;13.678;2022-07-29T08:17:17;25.70;52.00
3850;DHT22;1940;51.052;13.678;2022-07-29T08:19:43;26.10;51.20
3850;DHT22;1940;51.052;13.678;2022-07-29T08:22:09;26.40;50.80
3850;DHT22;1940;51.052;13.678;2022-07-29T08:24:35;26.70;50.80
3850;DHT22;1940;51.052;13.678;2022-07-29T08:27:13;26.70;50.90
3850;DHT22;1940;51.052;13.678;2022-07-29T08:29:39;26.60;51.20
3850;DHT22;1940;51.052;13.678;2022-07-29T08:32:05;27.10;50.00
3850;DHT22;1940;51.052;13.678;2022-07-29T08:34:31;27.70;49.40
3850;DHT22;1940;51.052;13.678;2022-07-29T08:36:57;28.20;48.60
3850;DHT22;1940;51.052;13.678;2022-07-29T08:39:23;29.10;47.00
3850;DHT22;1940;51.052;13.678;2022-07-29T08:41:50;29.50;46.50
3850;DHT22;1940;51.052;13.678;2022-07-29T08:44:19;29.70;46.40
3850;DHT22;1940;51.052;13.678;2022-07-29T08:46:47;29.10;47.10
3850;DHT22;1940;51.052;13.678;2022-07-29T08:49:13;29.00;47.50
3850;DHT22;1940;51.052;13.678;2022-07-29T08:51:40;29.10;47.10
3850;DHT22;1940;51.052;13.678;2022-07-29T08:54:06;29.50;47.20
3850;DHT22;1940;51.052;13.678;2022-07-29T08:56:34;30.60;45.50
3850;DHT22;1940;51.052;13.678;2022-07-29T08:59:03;31.80;44.20
3850;DHT22;1940;51.052;13.678;2022-07-29T09:01:32;31.90;43.90
3850;DHT22;1940;51.052;13.678;2022-07-29T09:03:59;31.60;43.90
3850;DHT22;1940;51.052;13.678;2022-07-29T09:06:29;31.70;43.80
3850;DHT22;1940;51.052;13.678;2022-07-29T09:08:58;31.60;44.00
3850;DHT22;1940;51.052;13.678;2022-07-29T09:11:25;32.40;43.60
3850;DHT22;1940;51.052;13.678;2022-07-29T09:13:50;33.00;42.90
3850;DHT22;1940;51.052;13.678;2022-07-29T09:16:16;32.60;42.60
3850;DHT22;1940;51.052;13.678;2022-07-29T09:18:43;33.00;42.10
3850;DHT22;1940;51.052;13.678;2022-07-29T09:21:11;33.10;41.80
3850;DHT22;1940;51.052;13.678;2022-07-29T09:24:14;33.00;42.30
3850;DHT22;1940;51.052;13.678;2022-07-29T09:26:43;32.70;42.50
3850;DHT22;1940;51.052;13.678;2022-07-29T09:29:13;32.60;42.50
3850;DHT22;1940;51.052;13.678;2022-07-29T09:31:41;32.30;42.80
3850;DHT22;1940;51.052;13.678;2022-07-29T09:34:08;32.10;42.90
3850;DHT22;1940;51.052;13.678;2022-07-29T09:36:43;31.80;43.30
3850;DHT22;1940;51.052;13.678;2022-07-29T09:39:09;31.80;43.90
3850;DHT22;1940;51.052;13.678;2022-07-29T09:41:45;32.00;43.70
3850;DHT22;1940;51.052;13.678;2022-07-29T09:44:12;31.80;43.70
3850;DHT22;1940;51.052;13.678;2022-07-29T09:46:37;31.70;43.70
3850;DHT22;1940;51.052;13.678;2022-07-29T09:49:08;31.70;43.90
3850;DHT22;1940;51.052;13.678;2022-07-29T09:51:34;31.60;43.70
3850;DHT22;1940;51.052;13.678;2022-07-29T09:54:00;31.40;44.20
3850;DHT22;1940;51.052;13.678;2022-07-29T09:56:42;31.30;44.20
3850;DHT22;1940;51.052;13.678;2022-07-29T09:59:08;31.40;44.40
3850;DHT22;1940;51.052;13.678;2022-07-29T10:01:36;31.70;44.00
3850;DHT22;1940;51.052;13.678;2022-07-29T10:04:02;32.10;43.20
3850;DHT22;1940;51.052;13.678;2022-07-29T10:06:27;32.30;43.20
3850;DHT22;1940;51.052;13.678;2022-07-29T10:08:53;32.60;42.70
3850;DHT22;1940;51.052;13.678;2022-07-29T10:11:19;32.70;42.80
3850;DHT22;1940;51.052;13.678;2022-07-29T10:13:47;33.40;42.10
3850;DHT22;1940;51.052;13.678;2022-07-29T10:16:14;34.10;41.30
3850;DHT22;1940;51.052;13.678;2022-07-29T10:18:42;35.10;39.90
3850;DHT22;1940;51.052;13.678;2022-07-29T10:21:08;35.60;39.00
3850;DHT22;1940;51.052;13.678;2022-07-29T10:23:34;36.00;39.00
3850;DHT22;1940;51.052;13.678;2022-07-29T10:26:02;36.40;38.50
3850;DHT22;1940;51.052;13.678;2022-07-29T10:28:28;36.70;37.90
3850;DHT22;1940;51.052;13.678;2022-07-29T10:31:01;36.80;37.80
3850;DHT22;1940;51.052;13.678;2022-07-29T10:38:44;34.40;40.10
3850;DHT22;1940;51.052;13.678;2022-07-29T10:43:53;34.40;40.20
3850;DHT22;1940;51.052;13.678;2022-07-29T10:46:20;34.60;39.90
3850;DHT22;1940;51.052;13.678;2022-07-29T10:49:15;35.40;39.20
3850;DHT22;1940;51.052;13.678;2022-07-29T10:57:30;34.10;40.30
3850;DHT22;1940;51.052;13.678;2022-07-29T11:05:18;33.00;41.60
3850;DHT22;1940;51.052;13.678;2022-07-29T11:10:38;34.10;40.70
3850;DHT22;1940;51.052;13.678;2022-07-29T11:13:04;34.30;40.10
3850;DHT22;1940;51.052;13.678;2022-07-29T11:15:53;33.80;40.30
3850;DHT22;1940;51.052;13.678;2022-07-29T11:18:19;33.70;40.80
3850;DHT22;1940;51.052;13.678;2022-07-29T11:20:50;34.10;40.60
3850;DHT22;1940;51.052;13.678;2022-07-29T11:23:32;34.70;39.10
3850;DHT22;1940;51.052;13.678;2022-07-29T11:26:16;34.60;39.30
3850;DHT22;1940;51.052;13.678;2022-07-29T11:31:31;34.70;39.20
3850;DHT22;1940;51.052;13.678;2022-07-29T11:39:42;33.60;40.40
3850;DHT22;1940;51.052;13.678;2022-07-29T11:44:59;32.40;42.00
3850;DHT22;1940;51.052;13.678;2022-07-29T11:47:31;32.00;42.50
3850;DHT22;1940;51.052;13.678;2022-07-29T11:49:58;31.90;42.70
3850;DHT22;1940;51.052;13.678;2022-07-29T11:52:35;31.90;42.90
3850;DHT22;1940;51.052;13.678;2022-07-29T11:55:04;31.90;43.00
3850;DHT22;1940;51.052;13.678;2022-07-29T11:57:31;31.90;42.90
3850;DHT22;1940;51.052;13.678;2022-07-29T11:59:58;31.50;43.10
3850;DHT22;1940;51.052;13.678;2022-07-29T12:02:24;31.20;43.60
3850;DHT22;1940;51.052;13.678;2022-07-29T12:04:54;31.10;44.00
3850;DHT22;1940;51.052;13.678;2022-07-29T12:07:30;31.00;43.80
3850;DHT22;1940;51.052;13.678;2022-07-29T12:09:56;31.00;44.30
3850;DHT22;1940;51.052;13.678;2022-07-29T12:12:22;30.70;44.50
3850;DHT22;1940;51.052;13.678;2022-07-29T12:14:48;30.40;45.00
3850;DHT22;1940;51.052;13.678;2022-07-29T12:17:26;30.50;44.60
3850;DHT22;1940;51.052;13.678;2022-07-29T12:19:53;30.40;44.90
3850;DHT22;1940;51.052;13.678;2022-07-29T12:22:33;30.50;45.00
3850;DHT22;1940;51.052;13.678;2022-07-29T12:25:12;30.70;44.90
3850;DHT22;1940;51.052;13.678;2022-07-29T12:27:40;31.00;44.40
3850;DHT22;1940;51.052;13.678;2022-07-29T12:30:08;31.20;44.20
3850;DHT22;1940;51.052;13.678;2022-07-29T12:32:35;31.50;44.40
3850;DHT22;1940;51.052;13.678;2022-07-29T12:35:04;31.40;43.90
3850;DHT22;1940;51.052;13.678;2022-07-29T12:37:32;31.10;44.30
3850;DHT22;1940;51.052;13.678;2022-07-29T12:39:59;30.80;44.70
3850;DHT22;1940;51.052;13.678;2022-07-29T12:42:25;30.70;45.10
3850;DHT22;1940;51.052;13.678;2022-07-29T12:44:51;30.70;45.60
3850;DHT22;1940;51.052;13.678;2022-07-29T12:47:17;30.80;45.30
3850;DHT22;1940;51.052;13.678;2022-07-29T12:49:44;30.70;45.00
3850;DHT22;1940;51.052;13.678;2022-07-29T12:52:27;30.60;45.10
3850;DHT22;1940;51.052;13.678;2022-07-29T12:54:53;30.50;45.50
3850;DHT22;1940;51.052;13.678;2022-07-29T12:57:19;30.40;45.70
3850;DHT22;1940;51.052;13.678;2022-07-29T12:59:45;30.30;45.70
3850;DHT22;1940;51.052;13.678;2022-07-29T13:02:21;30.10;46.20
3850;DHT22;1940;51.052;13.678;2022-07-29T13:05:00;30.20;46.10
3850;DHT22;1940;51.052;13.678;2022-07-29T13:07:27;30.20;46.10
3850;DHT22;1940;51.052;13.678;2022-07-29T13:10:11;30.30;46.00
3850;DHT22;1940;51.052;13.678;2022-07-29T13:12:37;30.20;46.20
3850;DHT22;1940;51.052;13.678;2022-07-29T13:15:14;30.40;46.00
3850;DHT22;1940;51.052;13.678;2022-07-29T13:17:42;30.60;45.80
3850;DHT22;1940;51.052;13.678;2022-07-29T13:20:11;30.50;45.60
3850;DHT22;1940;51.052;13.678;2022-07-29T13:22:41;30.60;45.60
3850;DHT22;1940;51.052;13.678;2022-07-29T13:25:08;30.70;45.50
3850;DHT22;1940;51.052;13.678;2022-07-29T13:27:37;30.70;45.80
3850;DHT22;1940;51.052;13.678;2022-07-29T13:30:07;30.70;45.30
3850;DHT22;1940;51.052;13.678;2022-07-29T13:32:34;30.70;45.40
3850;DHT22;1940;51.052;13.678;2022-07-29T13:35:03;30.70;45.30
3850;DHT22;1940;51.052;13.678;2022-07-29T13:37:29;30.80;45.30
3850;DHT22;1940;51.052;13.678;2022-07-29T13:39:56;30.90;44.80
3850;DHT22;1940;51.052;13.678;2022-07-29T13:42:22;31.00;44.90
3850;DHT22;1940;51.052;13.678;2022-07-29T13:44:48;31.10;44.70
3850;DHT22;1940;51.052;13.678;2022-07-29T13:47:16;31.10;44.80
3850;DHT22;1940;51.052;13.678;2022-07-29T13:49:42;31.20;44.70
3850;DHT22;1940;51.052;13.678;2022-07-29T13:52:07;31.20;44.70
3850;DHT22;1940;51.052;13.678;2022-07-29T13:57:55;31.00;44.90
3850;DHT22;1940;51.052;13.678;2022-07-29T14:00:21;30.90;45.20
3850;DHT22;1940;51.052;13.678;2022-07-29T14:02:48;30.90;44.90
3850;DHT22;1940;51.052;13.678;2022-07-29T14:05:14;30.90;44.90
3850;DHT22;1940;51.052;13.678;2022-07-29T14:07:40;31.00;44.50
3850;DHT22;1940;51.052;13.678;2022-07-29T14:10:06;30.90;44.70
3850;DHT22;1940;51.052;13.678;2022-07-29T14:12:32;30.90;45.10
3850;DHT22;1940;51.052;13.678;2022-07-29T14:14:58;30.80;45.60
3850;DHT22;1940;51.052;13.678;2022-07-29T14:17:23;30.80;45.60
3850;DHT22;1940;51.052;13.678;2022-07-29T14:19:49;30.70;45.40
3850;DHT22;1940;51.052;13.678;2022-07-29T14:22:14;30.50;45.50
3850;DHT22;1940;51.052;13.678;2022-07-29T14:24:40;30.40;45.60
3850;DHT22;1940;51.052;13.678;2022-07-29T14:27:07;30.00;46.30
3850;DHT22;1940;51.052;13.678;2022-07-29T14:29:33;30.00;46.50
3850;DHT22;1940;51.052;13.678;2022-07-29T14:31:59;30.00;46.50
3850;DHT22;1940;51.052;13.678;2022-07-29T14:34:24;30.00;46.40
3850;DHT22;1940;51.052;13.678;2022-07-29T14:36:50;30.10;46.20
3850;DHT22;1940;51.052;13.678;2022-07-29T14:39:15;30.10;46.30
3850;DHT22;1940;51.052;13.678;2022-07-29T14:41:42;30.00;46.50
3850;DHT22;1940;51.052;13.678;2022-07-29T14:44:08;30.00;46.40
3850;DHT22;1940;51.052;13.678;2022-07-29T14:46:34;29.90;46.40
3850;DHT22;1940;51.052;13.678;2022-07-29T14:48:59;29.90;46.60
3850;DHT22;1940;51.052;13.678;2022-07-29T14:51:25;29.80;46.40
3850;DHT22;1940;51.052;13.678;2022-07-29T14:53:51;29.90;46.40
3850;DHT22;1940;51.052;13.678;2022-07-29T14:56:17;29.90;46.60
3850;DHT22;1940;51.052;13.678;2022-07-29T14:58:43;29.90;46.50
3850;DHT22;1940;51.052;13.678;2022-07-29T15:01:08;29.80;46.60
3850;DHT22;1940;51.052;13.678;2022-07-29T15:03:34;29.80;46.70
3850;DHT22;1940;51.052;13.678;2022-07-29T15:06:00;29.80;46.20
3850;DHT22;1940;51.052;13.678;2022-07-29T15:08:25;29.80;46.60
3850;DHT22;1940;51.052;13.678;2022-07-29T15:10:53;29.70;46.70
3850;DHT22;1940;51.052;13.678;2022-07-29T15:13:19;29.70;46.60
3850;DHT22;1940;51.052;13.678;2022-07-29T15:15:44;29.60;46.90
3850;DHT22;1940;51.052;13.678;2022-07-29T15:18:10;29.70;46.70
3850;DHT22;1940;51.052;13.678;2022-07-29T15:20:36;29.80;46.70
3850;DHT22;1940;51.052;13.678;2022-07-29T15:23:02;29.80;46.30
3850;DHT22;1940;51.052;13.678;2022-07-29T15:25:27;29.70;46.10
3850;DHT22;1940;51.052;13.678;2022-07-29T15:27:53;29.60;46.60
3850;DHT22;1940;51.052;13.678;2022-07-29T15:30:20;29.60;46.30
3850;DHT22;1940;51.052;13.678;2022-07-29T15:32:46;29.60;46.30
3850;DHT22;1940;51.052;13.678;2022-07-29T15:35:11;29.60;46.30
3850;DHT22;1940;51.052;13.678;2022-07-29T15:37:38;29.50;46.40
3850;DHT22;1940;51.052;13.678;2022-07-29T15:40:07;29.60;46.30
3850;DHT22;1940;51.052;13.678;2022-07-29T15:42:35;29.60;46.30
3850;DHT22;1940;51.052;13.678;2022-07-29T15:45:03;29.60;46.50
3850;DHT22;1940;51.052;13.678;2022-07-29T15:47:29;29.50;46.10
3850;DHT22;1940;51.052;13.678;2022-07-29T15:49:54;29.40;46.20
3850;DHT22;1940;51.052;13.678;2022-07-29T15:52:20;29.20;46.30
3850;DHT22;1940;51.052;13.678;2022-07-29T15:54:45;29.20;46.30
3850;DHT22;1940;51.052;13.678;2022-07-29T15:57:11;29.20;46.30
3850;DHT22;1940;51.052;13.678;2022-07-29T15:59:37;29.20;46.90
3850;DHT22;1940;51.052;13.678;2022-07-29T16:02:03;29.20;47.00
3850;DHT22;1940;51.052;13.678;2022-07-29T16:04:29;29.30;46.90
3850;DHT22;1940;51.052;13.678;2022-07-29T16:06:56;29.20;47.10
3850;DHT22;1940;51.052;13.678;2022-07-29T16:09:22;29.20;47.10
3850;DHT22;1940;51.052;13.678;2022-07-29T16:11:47;29.20;47.00
3850;DHT22;1940;51.052;13.678;2022-07-29T16:14:16;29.30;46.90
3850;DHT22;1940;51.052;13.678;2022-07-29T16:16:42;29.30;47.40
3850;DHT22;1940;51.052;13.678;2022-07-29T16:19:08;29.30;47.70
3850;DHT22;1940;51.052;13.678;2022-07-29T16:21:35;29.10;48.20
3850;DHT22;1940;51.052;13.678;2022-07-29T16:24:01;29.00;48.50
3850;DHT22;1940;51.052;13.678;2022-07-29T16:26:27;28.90;48.80
3850;DHT22;1940;51.052;13.678;2022-07-29T16:28:53;28.70;48.90
3850;DHT22;1940;51.052;13.678;2022-07-29T16:34:41;28.50;49.40
3850;DHT22;1940;51.052;13.678;2022-07-29T16:37:06;28.40;49.30
3850;DHT22;1940;51.052;13.678;2022-07-29T16:39:32;28.30;49.40
3850;DHT22;1940;51.052;13.678;2022-07-29T16:41:57;28.30;49.50
3850;DHT22;1940;51.052;13.678;2022-07-29T16:44:23;28.30;49.60
3850;DHT22;1940;51.052;13.678;2022-07-29T16:46:49;28.20;49.70
3850;DHT22;1940;51.052;13.678;2022-07-29T16:49:14;28.20;49.80
3850;DHT22;1940;51.052;13.678;2022-07-29T16:51:40;28.20;49.80
3850;DHT22;1940;51.052;13.678;2022-07-29T16:54:05;28.20;49.70
3850;DHT22;1940;51.052;13.678;2022-07-29T16:56:33;28.10;49.80
3850;DHT22;1940;51.052;13.678;2022-07-29T16:58:58;28.10;49.70
3850;DHT22;1940;51.052;13.678;2022-07-29T17:01:24;28.10;49.80